Alpena, South Dakota
Current Conditions -  °F | °C
As of 6:32 AM on Wednesday 26 Nov 2014 (Local Time) from KHON Reporting Station
Light Snow Light Snow  
Wind Chill: -20°   Ceiling: 3200
Heat Index: -9°   Visibility: 5mi
Dew Point: -11°   Wind: 28mph
Humidity: 84%   Direction: 350°N
Pressure: 30.16"   Gusts: 35mph
Location:  44.18°N, 98.37°W
Report Text: KHON 261232Z AUTO 35024G30KT 5SM -SN BR BKN032 OVC070 M09/M11 A3016 RMK AO2 PK WND 35033/1212 P0000 T10891111
Loading
Personal Weather Stations






























Interactive Weather Map New forecast layout! Learn more

10-Day Weather Forecast

Advertisements
Track Severe Weather on mobile